createdAt,value
2023-01-21T00:02:27.012Z,24.28
2023-01-21T00:05:01.859Z,24.27
2023-01-21T00:07:31.175Z,24.26
2023-01-21T00:10:00.346Z,24.26
2023-01-21T00:12:31.797Z,24.25
2023-01-21T00:15:01.044Z,24.24
2023-01-21T00:17:31.607Z,24.23
2023-01-21T00:20:00.886Z,24.22
2023-01-21T00:22:30.288Z,24.22
2023-01-21T00:24:59.605Z,24.20
2023-01-21T00:27:28.982Z,24.19
2023-01-21T00:29:58.315Z,24.19
2023-01-21T00:32:27.713Z,24.17
2023-01-21T00:34:57.036Z,24.17
2023-01-21T00:37:26.408Z,24.15
2023-01-21T00:39:55.754Z,24.15
2023-01-21T00:42:25.345Z,24.13
2023-01-21T00:44:54.615Z,24.11
2023-01-21T00:47:24.255Z,24.09
2023-01-21T00:49:54.406Z,24.09
2023-01-21T00:52:24.239Z,24.06
2023-01-21T00:54:54.240Z,24.05
2023-01-21T00:57:24.278Z,24.06
2023-01-21T00:59:54.578Z,24.05
2023-01-21T01:02:24.301Z,24.03
2023-01-21T01:04:54.228Z,24.03
2023-01-21T01:07:24.328Z,24.01
2023-01-21T01:09:54.427Z,24.01
2023-01-21T01:12:24.319Z,23.98
2023-01-21T01:14:54.311Z,23.98
2023-01-21T01:17:24.297Z,23.94
2023-01-21T01:19:54.411Z,23.95
2023-01-21T01:22:24.360Z,23.93
2023-01-21T01:24:54.373Z,23.91
2023-01-21T01:27:24.371Z,23.91
2023-01-21T01:29:54.363Z,23.89
2023-01-21T01:32:26.706Z,23.88
2023-01-21T01:34:56.076Z,23.88
2023-01-21T01:37:25.369Z,23.88
2023-01-21T01:39:55.360Z,23.86
2023-01-21T01:42:24.793Z,23.84
2023-01-21T01:45:03.411Z,23.83
2023-01-21T01:47:34.110Z,23.79
2023-01-21T01:50:03.399Z,23.81
2023-01-21T01:52:32.565Z,23.80
2023-01-21T01:55:02.027Z,23.79
2023-01-21T01:57:35.783Z,23.78
2023-01-21T02:00:05.823Z,23.76
2023-01-21T02:02:35.045Z,23.75
2023-01-21T02:05:07.983Z,23.75
2023-01-21T02:07:41.583Z,23.77
2023-01-21T02:10:11.739Z,23.79
2023-01-21T02:12:41.355Z,23.81
2023-01-21T02:15:10.935Z,23.84
2023-01-21T02:18:02.083Z,23.87
2023-01-21T02:20:32.720Z,23.89
2023-01-21T02:23:03.267Z,23.92
2023-01-21T02:25:36.965Z,23.96
2023-01-21T02:28:26.038Z,23.99
2023-01-21T02:31:09.632Z,24.00
2023-01-21T02:33:40.045Z,24.03
2023-01-21T02:36:28.747Z,24.07
2023-01-21T02:39:05.591Z,24.10
2023-01-21T02:41:39.063Z,24.13
2023-01-21T02:44:19.023Z,24.13
2023-01-21T02:46:49.687Z,24.10
2023-01-21T02:49:26.052Z,24.07
2023-01-21T02:51:55.530Z,24.07
2023-01-21T02:54:47.265Z,24.06
2023-01-21T02:57:16.976Z,24.05
2023-01-21T02:59:47.425Z,24.05
2023-01-21T03:02:36.276Z,24.05
2023-01-21T03:05:07.939Z,24.04
2023-01-21T03:07:37.737Z,24.04
2023-01-21T03:10:08.392Z,24.03
2023-01-21T03:12:45.220Z,24.03
2023-01-21T03:15:33.052Z,24.01
2023-01-21T03:18:03.593Z,24.01
2023-01-21T03:20:33.691Z,23.99
2023-01-21T03:23:04.429Z,24.00
2023-01-21T03:25:34.376Z,24.00
2023-01-21T03:28:04.237Z,23.98
2023-01-21T03:30:33.441Z,23.97
2023-01-21T03:33:02.737Z,23.96
2023-01-21T03:35:33.356Z,23.95
2023-01-21T03:38:13.038Z,23.94
2023-01-21T03:40:46.768Z,23.96
2023-01-21T03:43:16.059Z,23.98
2023-01-21T03:45:52.094Z,24.01
2023-01-21T03:48:25.819Z,24.02
2023-01-21T03:50:57.023Z,24.03
2023-01-21T03:53:26.291Z,24.07
2023-01-21T03:55:55.530Z,24.11
2023-01-21T03:58:25.215Z,24.15
2023-01-21T04:00:54.759Z,24.17
2023-01-21T04:03:24.680Z,24.20
2023-01-21T04:05:54.964Z,24.21
2023-01-21T04:08:24.711Z,24.19
2023-01-21T04:10:53.903Z,24.16
2023-01-21T04:13:24.088Z,24.15
2023-01-21T04:15:53.717Z,24.14
2023-01-21T04:18:26.214Z,24.13
2023-01-21T04:20:55.702Z,24.09
2023-01-21T04:23:25.632Z,24.09
2023-01-21T04:25:55.527Z,24.07
2023-01-21T04:28:25.696Z,24.07
2023-01-21T04:30:55.947Z,24.06
2023-01-21T04:33:25.236Z,24.05
2023-01-21T04:35:56.193Z,24.06
2023-01-21T04:38:25.652Z,24.05
2023-01-21T04:40:55.668Z,24.05
2023-01-21T04:43:25.804Z,24.03
2023-01-21T04:45:55.577Z,24.02
2023-01-21T04:48:25.738Z,24.02
2023-01-21T04:50:55.768Z,24.01
2023-01-21T04:53:25.670Z,24.00
2023-01-21T04:55:55.691Z,23.98
2023-01-21T04:58:25.690Z,23.98
2023-01-21T05:00:56.858Z,23.94
2023-01-21T05:03:26.318Z,23.95
2023-01-21T05:05:55.786Z,23.94
2023-01-21T05:08:25.603Z,23.92
2023-01-21T05:10:55.610Z,23.91
2023-01-21T05:13:25.849Z,23.90
2023-01-21T05:15:55.058Z,23.89
2023-01-21T05:18:24.881Z,23.88
2023-01-21T05:20:55.809Z,23.80
2023-01-21T05:23:25.929Z,23.84
2023-01-21T05:25:55.847Z,23.82
2023-01-21T05:28:25.686Z,23.81
2023-01-21T05:30:55.881Z,23.81
2023-01-21T05:33:27.177Z,23.77
2023-01-21T05:35:56.531Z,23.78
2023-01-21T05:38:25.718Z,23.76
2023-01-21T05:40:59.147Z,23.75
2023-01-21T05:43:28.322Z,23.73
2023-01-21T05:45:57.685Z,23.73
2023-01-21T05:48:26.982Z,23.71
2023-01-21T05:50:58.198Z,23.68
2023-01-21T05:53:26.830Z,23.68
2023-01-21T05:55:56.402Z,23.67
2023-01-21T05:58:25.853Z,23.65
2023-01-21T06:00:55.816Z,23.63
2023-01-21T06:03:25.860Z,23.61
2023-01-21T06:05:55.892Z,23.61
2023-01-21T06:08:25.902Z,23.59
2023-01-21T06:10:57.446Z,23.57
2023-01-21T06:13:26.848Z,23.56
2023-01-21T06:15:57.292Z,23.54
2023-01-21T06:18:26.577Z,23.53
2023-01-21T06:20:55.896Z,23.50
2023-01-21T06:23:25.862Z,23.49
2023-01-21T06:25:55.403Z,23.48
2023-01-21T06:28:24.983Z,23.47
2023-01-21T06:30:55.069Z,23.44
2023-01-21T06:33:25.315Z,23.41
2023-01-21T06:35:55.031Z,23.42
2023-01-21T06:38:25.023Z,23.40
2023-01-21T06:40:55.081Z,23.38
2023-01-21T06:43:24.963Z,23.36
2023-01-21T06:45:55.081Z,23.35
2023-01-21T06:48:25.101Z,23.32
2023-01-21T06:50:55.036Z,23.32
2023-01-21T06:53:24.986Z,23.30
2023-01-21T06:55:55.089Z,23.29
2023-01-21T06:58:25.191Z,23.26
2023-01-21T07:00:56.469Z,23.27
2023-01-21T07:03:25.851Z,23.25
2023-01-21T07:05:55.985Z,23.22
2023-01-21T07:08:25.916Z,23.18
2023-01-21T07:10:55.992Z,23.19
2023-01-21T07:13:26.041Z,23.18
2023-01-21T07:15:55.685Z,23.16
2023-01-21T07:18:25.182Z,23.14
2023-01-21T07:20:55.079Z,23.12
2023-01-21T07:23:25.096Z,23.06
2023-01-21T07:25:55.551Z,23.08
2023-01-21T07:28:25.377Z,23.07
2023-01-21T07:30:54.654Z,23.06
2023-01-21T07:33:24.756Z,23.02
2023-01-21T07:35:54.235Z,23.00
2023-01-21T07:38:24.316Z,22.99
2023-01-21T07:40:54.210Z,22.97
2023-01-21T07:43:24.348Z,22.95
2023-01-21T07:45:54.239Z,22.95
2023-01-21T07:48:23.962Z,22.94
2023-01-21T07:50:53.386Z,22.85
2023-01-21T07:53:23.396Z,22.90
2023-01-21T07:55:53.458Z,22.87
2023-01-21T07:58:23.282Z,22.87
2023-01-21T08:00:53.505Z,22.85
2023-01-21T08:03:24.291Z,22.83
2023-01-21T08:05:57.019Z,22.81
2023-01-21T08:08:26.295Z,22.80
2023-01-21T08:10:57.669Z,22.78
2023-01-21T08:13:26.952Z,22.73
2023-01-21T08:15:56.741Z,22.76
2023-01-21T08:18:26.288Z,22.74
2023-01-21T08:20:59.340Z,22.72
2023-01-21T08:23:28.611Z,22.70
2023-01-21T08:25:57.906Z,22.69
2023-01-21T08:28:27.173Z,22.67
2023-01-21T08:30:56.468Z,22.67
2023-01-21T08:33:26.220Z,22.64
2023-01-21T08:35:57.575Z,22.63
2023-01-21T08:38:26.875Z,22.60
2023-01-21T08:40:58.055Z,22.60
2023-01-21T08:43:27.555Z,22.59
2023-01-21T08:46:01.365Z,22.56
2023-01-21T08:48:30.906Z,22.54
2023-01-21T08:51:00.792Z,22.54
2023-01-21T08:53:30.504Z,22.52
2023-01-21T08:56:03.938Z,22.50
2023-01-21T08:58:33.262Z,22.50
2023-01-21T09:01:03.937Z,22.48
2023-01-21T09:03:33.176Z,22.47
2023-01-21T09:06:03.154Z,22.45
2023-01-21T09:08:32.346Z,22.42
2023-01-21T09:11:04.711Z,22.41
2023-01-21T09:13:38.743Z,22.40
2023-01-21T09:16:11.020Z,22.38
2023-01-21T09:18:40.261Z,22.38
2023-01-21T09:21:09.466Z,22.35
2023-01-21T09:23:38.836Z,22.34
2023-01-21T09:26:12.215Z,22.33
2023-01-21T09:28:43.111Z,22.32
2023-01-21T09:31:12.883Z,22.29
2023-01-21T09:33:42.752Z,22.29
2023-01-21T09:36:13.331Z,22.28
2023-01-21T09:38:45.867Z,22.26
2023-01-21T09:41:16.440Z,22.24
2023-01-21T09:43:46.628Z,22.22
2023-01-21T09:46:19.934Z,22.20
2023-01-21T09:48:49.614Z,22.20
2023-01-21T09:51:22.912Z,22.18
2023-01-21T09:53:53.567Z,22.17
2023-01-21T09:56:33.809Z,22.15
2023-01-21T09:59:21.060Z,22.13
2023-01-21T10:01:50.172Z,22.12
2023-01-21T10:04:23.849Z,22.10
2023-01-21T10:06:55.593Z,22.09
2023-01-21T10:09:32.900Z,22.06
2023-01-21T10:12:20.002Z,22.06
2023-01-21T10:15:07.231Z,22.06
2023-01-21T10:17:40.856Z,22.03
2023-01-21T10:20:23.541Z,22.01
2023-01-21T10:23:06.234Z,22.01
2023-01-21T10:25:35.845Z,21.99
2023-01-21T10:28:06.577Z,22.00
2023-01-21T10:30:40.369Z,21.98
2023-01-21T10:33:11.042Z,21.97
2023-01-21T10:35:47.484Z,21.95
2023-01-21T10:38:23.921Z,21.95
2023-01-21T10:40:56.944Z,21.94
2023-01-21T10:43:37.208Z,21.92
2023-01-21T10:46:10.630Z,21.89
2023-01-21T10:48:41.284Z,21.89
2023-01-21T10:51:21.061Z,21.89
2023-01-21T10:53:51.615Z,21.88
2023-01-21T10:56:22.246Z,21.87
2023-01-21T10:58:54.515Z,21.87
2023-01-21T11:01:24.989Z,21.85
2023-01-21T11:03:55.578Z,21.85
2023-01-21T11:06:25.768Z,21.84
2023-01-21T11:09:00.337Z,21.83
2023-01-21T11:11:30.353Z,21.81
2023-01-21T11:13:59.624Z,21.81
2023-01-21T11:16:36.398Z,21.80
2023-01-21T11:19:07.134Z,21.79
2023-01-21T11:21:36.432Z,21.78
2023-01-21T11:24:06.302Z,21.78
2023-01-21T11:26:36.309Z,21.77
2023-01-21T11:29:12.978Z,21.77
2023-01-21T11:31:42.678Z,21.75
2023-01-21T11:34:18.611Z,21.75
2023-01-21T11:37:00.287Z,21.74
2023-01-21T11:39:30.053Z,21.74
2023-01-21T11:41:59.732Z,21.72
2023-01-21T11:44:28.987Z,21.71
2023-01-21T11:46:58.292Z,21.69
2023-01-21T11:49:32.084Z,21.68
2023-01-21T11:52:02.637Z,21.68
2023-01-21T11:54:31.859Z,21.68
2023-01-21T11:57:01.982Z,21.67
2023-01-21T11:59:35.283Z,21.66
2023-01-21T12:02:08.372Z,21.65
2023-01-21T12:04:37.525Z,21.65
2023-01-21T12:07:07.063Z,21.65
2023-01-21T12:09:36.355Z,21.67
2023-01-21T12:12:09.877Z,21.70
2023-01-21T12:14:46.468Z,21.74
2023-01-21T12:17:17.194Z,21.79
2023-01-21T12:19:48.008Z,21.86
2023-01-21T12:22:21.548Z,21.94
2023-01-21T12:25:10.514Z,22.00
2023-01-21T12:27:41.233Z,22.07
2023-01-21T12:30:11.858Z,22.15
2023-01-21T12:33:00.775Z,22.23
2023-01-21T12:35:37.906Z,22.29
2023-01-21T12:38:13.023Z,22.38
2023-01-21T12:40:58.187Z,22.46
2023-01-21T12:43:31.703Z,22.54
2023-01-21T12:46:02.327Z,22.62
2023-01-21T12:48:36.018Z,22.68
2023-01-21T12:51:06.835Z,22.74
2023-01-21T12:53:37.469Z,22.83
2023-01-21T12:56:08.993Z,22.89
2023-01-21T12:58:45.510Z,22.96
2023-01-21T13:01:15.486Z,23.01
2023-01-21T13:04:02.633Z,23.09
2023-01-21T13:06:51.954Z,23.13
2023-01-21T13:09:05.558Z,23.19
2023-01-21T13:11:38.986Z,23.23
2023-01-21T13:14:13.799Z,23.31
2023-01-21T13:16:53.712Z,23.35
2023-01-21T13:19:23.480Z,23.40
2023-01-21T13:21:54.888Z,23.43
2023-01-21T13:24:41.635Z,23.48
2023-01-21T13:27:15.403Z,23.53
2023-01-21T13:29:49.219Z,23.58
2023-01-21T13:32:29.164Z,23.61
2023-01-21T13:35:07.101Z,23.65
2023-01-21T13:37:37.807Z,23.70
2023-01-21T13:40:17.541Z,23.75
2023-01-21T13:42:54.464Z,23.81
2023-01-21T13:45:25.812Z,23.88
2023-01-21T13:48:14.426Z,23.94
2023-01-21T13:51:02.092Z,23.98
2023-01-21T13:53:38.940Z,24.02
2023-01-21T13:56:12.449Z,24.06
2023-01-21T13:58:43.056Z,24.09
2023-01-21T14:01:13.843Z,24.14
2023-01-21T14:03:44.611Z,24.18
2023-01-21T14:06:25.497Z,24.21
2023-01-21T14:08:56.721Z,24.22
2023-01-21T14:11:39.764Z,24.21
2023-01-21T14:14:16.343Z,24.17
2023-01-21T14:17:03.559Z,24.17
2023-01-21T14:19:37.352Z,24.16
2023-01-21T14:22:16.859Z,24.15
2023-01-21T14:24:47.322Z,24.14
2023-01-21T14:27:18.008Z,24.13
2023-01-21T14:29:51.447Z,24.10
2023-01-21T14:32:25.138Z,24.09
2023-01-21T14:34:59.590Z,24.08
2023-01-21T14:37:33.388Z,24.07
2023-01-21T14:40:07.080Z,24.07
2023-01-21T14:42:43.459Z,24.06
2023-01-21T14:45:13.960Z,24.06
2023-01-21T14:47:47.464Z,24.03
2023-01-21T14:50:34.735Z,24.02
2023-01-21T14:53:05.529Z,24.00
2023-01-21T14:55:35.149Z,24.00
2023-01-21T14:58:04.391Z,23.97
2023-01-21T15:00:34.510Z,23.96
2023-01-21T15:03:08.286Z,23.95
2023-01-21T15:05:45.623Z,23.94
2023-01-21T15:08:19.083Z,23.94
2023-01-21T15:10:49.644Z,23.92
2023-01-21T15:13:20.123Z,23.91
2023-01-21T15:16:07.731Z,23.92
2023-01-21T15:18:38.449Z,23.89
2023-01-21T15:21:25.375Z,23.91
2023-01-21T15:23:55.518Z,23.92
2023-01-21T15:26:34.761Z,23.92
2023-01-21T15:29:23.446Z,23.96
2023-01-21T15:31:52.855Z,23.99
2023-01-21T15:34:22.233Z,24.01
2023-01-21T15:36:53.107Z,24.03
2023-01-21T15:39:23.769Z,24.05
2023-01-21T15:42:00.864Z,24.08
2023-01-21T15:44:34.779Z,24.11
2023-01-21T15:47:21.625Z,24.15
2023-01-21T15:50:08.603Z,24.17
2023-01-21T15:52:44.994Z,24.21
2023-01-21T15:55:21.404Z,24.23
2023-01-21T15:57:51.857Z,24.27
2023-01-21T16:00:38.656Z,24.30
2023-01-21T16:03:27.320Z,24.32
2023-01-21T16:06:04.530Z,24.37
2023-01-21T16:08:41.014Z,24.39
2023-01-21T16:11:11.926Z,24.42
2023-01-21T16:13:49.332Z,24.45
2023-01-21T16:16:20.008Z,24.48
2023-01-21T16:19:00.269Z,24.52
2023-01-21T16:21:34.012Z,24.54
2023-01-21T16:24:04.642Z,24.54
2023-01-21T16:26:33.906Z,24.49
2023-01-21T16:29:02.991Z,24.48
2023-01-21T16:31:32.405Z,24.47
2023-01-21T16:34:01.690Z,24.45
2023-01-21T16:36:32.256Z,24.45
2023-01-21T16:39:02.952Z,24.44
2023-01-21T16:41:32.125Z,24.42
2023-01-21T16:44:01.624Z,24.41
2023-01-21T16:46:32.992Z,24.39
2023-01-21T16:49:02.356Z,24.39
2023-01-21T16:51:34.271Z,24.37
2023-01-21T16:54:22.882Z,24.36
2023-01-21T16:56:56.316Z,24.34
2023-01-21T16:59:32.699Z,24.32
2023-01-21T17:02:01.946Z,24.32
2023-01-21T17:04:31.201Z,24.31
2023-01-21T17:07:00.351Z,24.29
2023-01-21T17:09:30.876Z,24.28
2023-01-21T17:12:00.089Z,24.28
2023-01-21T17:14:29.652Z,24.26
2023-01-21T17:16:58.894Z,24.24
2023-01-21T17:19:37.653Z,24.24
2023-01-21T17:22:08.376Z,24.22
2023-01-21T17:24:39.438Z,24.22
2023-01-21T17:27:09.795Z,24.20
2023-01-21T17:29:39.032Z,24.18
2023-01-21T17:32:08.898Z,24.18
2023-01-21T17:34:38.354Z,24.16
2023-01-21T17:37:09.016Z,24.16
2023-01-21T17:39:49.030Z,24.14
2023-01-21T17:42:24.928Z,24.11
2023-01-21T17:44:55.709Z,24.11
2023-01-21T17:47:32.317Z,24.09
2023-01-21T17:50:08.911Z,24.07
2023-01-21T17:52:38.169Z,24.05
2023-01-21T17:55:14.637Z,24.03
2023-01-21T17:57:43.895Z,24.02
2023-01-21T18:00:29.346Z,24.02
2023-01-21T18:02:59.006Z,24.00
2023-01-21T18:05:28.240Z,23.99
2023-01-21T18:07:57.588Z,23.97
2023-01-21T18:10:30.702Z,23.95
2023-01-21T18:12:59.938Z,23.92
2023-01-21T18:15:29.461Z,23.91
2023-01-21T18:17:59.030Z,23.92
2023-01-21T18:20:28.886Z,23.90
2023-01-21T18:22:58.468Z,23.89
2023-01-21T18:25:28.235Z,23.88
2023-01-21T18:27:58.155Z,23.86
2023-01-21T18:30:29.165Z,23.84
2023-01-21T18:32:58.652Z,23.82
2023-01-21T18:35:28.592Z,23.86
2023-01-21T18:37:58.359Z,23.88
2023-01-21T18:40:28.278Z,23.90
2023-01-21T18:42:58.303Z,23.91
2023-01-21T18:45:28.511Z,23.94
2023-01-21T18:47:58.589Z,23.97
2023-01-21T18:50:29.288Z,23.99
2023-01-21T18:52:58.567Z,24.03
2023-01-21T18:55:28.473Z,24.05
2023-01-21T18:57:58.305Z,24.06
2023-01-21T19:00:35.811Z,24.09
2023-01-21T19:03:05.075Z,24.13
2023-01-21T19:05:38.074Z,24.18
2023-01-21T19:08:08.177Z,24.22
2023-01-21T19:10:37.546Z,24.25
2023-01-21T19:13:06.805Z,24.29
2023-01-21T19:15:36.071Z,24.30
2023-01-21T19:18:05.467Z,24.31
2023-01-21T19:20:36.034Z,24.30
2023-01-21T19:23:05.365Z,24.29
2023-01-21T19:25:34.695Z,24.27
2023-01-21T19:28:03.963Z,24.26
2023-01-21T19:30:33.478Z,24.25
2023-01-21T19:33:02.756Z,24.24
2023-01-21T19:35:35.961Z,24.23
2023-01-21T19:38:05.355Z,24.25
2023-01-21T19:40:37.167Z,24.25
2023-01-21T19:43:06.330Z,24.23
2023-01-21T19:45:35.738Z,24.23
2023-01-21T19:48:05.060Z,24.22
2023-01-21T19:50:34.310Z,24.22
2023-01-21T19:53:03.567Z,24.22
2023-01-21T19:55:32.897Z,24.22
2023-01-21T19:58:03.246Z,24.22
2023-01-21T20:00:33.862Z,24.22
2023-01-21T20:03:03.112Z,24.21
2023-01-21T20:05:33.951Z,24.20
2023-01-21T20:08:03.156Z,24.20
2023-01-21T20:10:32.586Z,24.19
2023-01-21T20:13:01.900Z,24.18
2023-01-21T20:15:32.144Z,24.17
2023-01-21T20:18:01.669Z,24.17
2023-01-21T20:20:31.736Z,24.17
2023-01-21T20:23:01.236Z,24.17
2023-01-21T20:25:31.977Z,24.16
2023-01-21T20:28:01.377Z,24.16
2023-01-21T20:30:32.519Z,24.15
2023-01-21T20:33:04.857Z,24.14
2023-01-21T20:35:33.932Z,24.14
2023-01-21T20:38:03.231Z,24.11
2023-01-21T20:40:32.628Z,24.12
2023-01-21T20:43:01.989Z,24.11
2023-01-21T20:45:32.107Z,24.11
2023-01-21T20:48:01.928Z,24.10
2023-01-21T20:50:33.025Z,24.10
2023-01-21T20:53:02.326Z,24.09
2023-01-21T20:55:32.272Z,24.07
2023-01-21T20:58:02.287Z,24.07
2023-01-21T21:00:32.831Z,24.05
2023-01-21T21:03:02.319Z,24.06
2023-01-21T21:05:31.544Z,24.05
2023-01-21T21:08:00.738Z,24.05
2023-01-21T21:10:31.341Z,24.04
2023-01-21T21:13:00.539Z,24.05
2023-01-21T21:15:30.008Z,24.04
2023-01-21T21:17:59.257Z,24.04
2023-01-21T21:20:30.048Z,24.03
2023-01-21T21:22:59.213Z,24.03
2023-01-21T21:25:30.445Z,24.01
2023-01-21T21:27:59.907Z,24.00
2023-01-21T21:30:30.529Z,24.01
2023-01-21T21:33:00.517Z,24.00
2023-01-21T21:35:31.043Z,24.00
2023-01-21T21:38:00.796Z,24.01
2023-01-21T21:40:33.394Z,23.99
2023-01-21T21:43:20.368Z,23.98
2023-01-21T21:46:07.676Z,23.97
2023-01-21T21:48:40.028Z,23.96
2023-01-21T21:51:09.703Z,23.96
2023-01-21T21:53:39.178Z,23.96
2023-01-21T21:56:09.914Z,23.97
2023-01-21T21:58:39.208Z,24.01
2023-01-21T22:01:09.381Z,24.04
2023-01-21T22:03:38.832Z,24.08
2023-01-21T22:06:08.287Z,24.12
2023-01-21T22:08:38.086Z,24.16
2023-01-21T22:11:08.422Z,24.20
2023-01-21T22:13:38.523Z,24.23
2023-01-21T22:16:08.158Z,24.27
2023-01-21T22:18:37.428Z,24.31
2023-01-21T22:21:07.458Z,24.36
2023-01-21T22:23:37.339Z,24.41
2023-01-21T22:26:07.117Z,24.46
2023-01-21T22:28:36.492Z,24.49
2023-01-21T22:31:07.450Z,24.54
2023-01-21T22:33:36.991Z,24.57
2023-01-21T22:36:09.793Z,24.56
2023-01-21T22:38:40.630Z,24.56
2023-01-21T22:41:10.005Z,24.57
2023-01-21T22:43:40.288Z,24.57
2023-01-21T22:46:09.621Z,24.57
2023-01-21T22:48:38.834Z,24.57
2023-01-21T22:51:08.270Z,24.57
2023-01-21T22:53:37.563Z,24.58
2023-01-21T22:56:07.070Z,24.58
2023-01-21T22:58:36.425Z,24.59
2023-01-21T23:01:05.868Z,24.59
2023-01-21T23:03:35.193Z,24.60
2023-01-21T23:06:05.967Z,24.59
2023-01-21T23:08:35.287Z,24.58
2023-01-21T23:11:05.085Z,24.58
2023-01-21T23:13:34.445Z,24.57
2023-01-21T23:16:03.946Z,24.57
2023-01-21T23:18:33.202Z,24.55
2023-01-21T23:21:02.617Z,24.55
2023-01-21T23:23:33.263Z,24.54
2023-01-21T23:26:03.478Z,24.54
2023-01-21T23:28:32.705Z,24.52
2023-01-21T23:31:03.540Z,24.52
2023-01-21T23:33:32.811Z,24.51
2023-01-21T23:36:02.091Z,24.51
2023-01-21T23:38:31.401Z,24.51
2023-01-21T23:41:00.793Z,24.49
2023-01-21T23:43:29.979Z,24.48
2023-01-21T23:45:59.797Z,24.47
2023-01-21T23:48:29.881Z,24.46
2023-01-21T23:51:05.467Z,24.44
2023-01-21T23:53:34.780Z,24.44
2023-01-21T23:56:14.604Z,24.43
2023-01-21T23:58:46.249Z,24.42
